sensor_id;sensor_type;location;lat;lon;timestamp;temperature;humidity
1413;DHT22;701;52.526;13.408;2023-11-22T00:00:03;2.20;20.60
1413;DHT22;701;52.526;13.408;2023-11-22T00:02:34;2.30;20.70
1413;DHT22;701;52.526;13.408;2023-11-22T00:05:00;2.30;20.40
1413;DHT22;701;52.526;13.408;2023-11-22T00:07:26;2.40;20.50
1413;DHT22;701;52.526;13.408;2023-11-22T00:09:55;2.40;20.20
1413;DHT22;701;52.526;13.408;2023-11-22T00:12:21;2.40;20.10
1413;DHT22;701;52.526;13.408;2023-11-22T00:14:49;2.50;20.20
1413;DHT22;701;52.526;13.408;2023-11-22T00:17:15;2.50;20.10
1413;DHT22;701;52.526;13.408;2023-11-22T00:19:43;2.50;20.00
1413;DHT22;701;52.526;13.408;2023-11-22T00:22:10;2.60;19.90
1413;DHT22;701;52.526;13.408;2023-11-22T00:24:39;2.60;19.60
1413;DHT22;701;52.526;13.408;2023-11-22T00:27:06;2.60;19.40
1413;DHT22;701;52.526;13.408;2023-11-22T00:29:32;2.60;19.40
1413;DHT22;701;52.526;13.408;2023-11-22T00:31:58;2.60;19.00
1413;DHT22;701;52.526;13.408;2023-11-22T00:34:24;2.60;18.90
1413;DHT22;701;52.526;13.408;2023-11-22T00:36:50;2.60;19.00
1413;DHT22;701;52.526;13.408;2023-11-22T00:39:17;2.50;19.10
1413;DHT22;701;52.526;13.408;2023-11-22T00:41:43;2.60;19.40
1413;DHT22;701;52.526;13.408;2023-11-22T00:44:10;2.50;19.10
1413;DHT22;701;52.526;13.408;2023-11-22T00:46:36;2.50;19.20
1413;DHT22;701;52.526;13.408;2023-11-22T00:49:05;2.60;19.30
1413;DHT22;701;52.526;13.408;2023-11-22T00:51:32;2.60;19.30
1413;DHT22;701;52.526;13.408;2023-11-22T00:53:58;2.60;19.40
1413;DHT22;701;52.526;13.408;2023-11-22T00:56:25;2.60;19.10
1413;DHT22;701;52.526;13.408;2023-11-22T00:58:51;2.60;19.20
1413;DHT22;701;52.526;13.408;2023-11-22T01:01:21;2.60;19.00
1413;DHT22;701;52.526;13.408;2023-11-22T01:03:47;2.60;19.50
1413;DHT22;701;52.526;13.408;2023-11-22T01:06:13;2.50;19.10
1413;DHT22;701;52.526;13.408;2023-11-22T01:08:39;2.50;19.00
1413;DHT22;701;52.526;13.408;2023-11-22T01:11:05;2.40;19.00
1413;DHT22;701;52.526;13.408;2023-11-22T01:13:32;2.30;19.20
1413;DHT22;701;52.526;13.408;2023-11-22T01:15:58;2.20;19.30
1413;DHT22;701;52.526;13.408;2023-11-22T01:18:24;2.10;19.50
1413;DHT22;701;52.526;13.408;2023-11-22T01:20:50;2.00;19.80
1413;DHT22;701;52.526;13.408;2023-11-22T01:23:16;1.90;19.80
1413;DHT22;701;52.526;13.408;2023-11-22T01:25:42;1.80;20.00
1413;DHT22;701;52.526;13.408;2023-11-22T01:28:07;1.70;20.40
1413;DHT22;701;52.526;13.408;2023-11-22T01:30:36;1.60;20.60
1413;DHT22;701;52.526;13.408;2023-11-22T01:33:03;1.60;20.90
1413;DHT22;701;52.526;13.408;2023-11-22T01:35:30;1.50;21.20
1413;DHT22;701;52.526;13.408;2023-11-22T01:37:56;1.40;21.50
1413;DHT22;701;52.526;13.408;2023-11-22T01:40:23;1.40;21.70
1413;DHT22;701;52.526;13.408;2023-11-22T01:42:49;1.30;21.80
1413;DHT22;701;52.526;13.408;2023-11-22T01:45:14;1.30;22.10
1413;DHT22;701;52.526;13.408;2023-11-22T01:47:41;1.30;22.20
1413;DHT22;701;52.526;13.408;2023-11-22T01:50:08;1.20;22.20
1413;DHT22;701;52.526;13.408;2023-11-22T01:52:34;1.20;22.40
1413;DHT22;701;52.526;13.408;2023-11-22T01:55:02;1.10;22.30
1413;DHT22;701;52.526;13.408;2023-11-22T01:57:31;1.10;22.00
1413;DHT22;701;52.526;13.408;2023-11-22T02:00:03;1.10;21.60
1413;DHT22;701;52.526;13.408;2023-11-22T02:02:38;1.00;21.60
1413;DHT22;701;52.526;13.408;2023-11-22T02:05:04;1.00;21.60
1413;DHT22;701;52.526;13.408;2023-11-22T02:07:31;1.00;21.30
1413;DHT22;701;52.526;13.408;2023-11-22T02:09:58;0.90;21.00
1413;DHT22;701;52.526;13.408;2023-11-22T02:12:24;0.90;20.40
1413;DHT22;701;52.526;13.408;2023-11-22T02:14:49;0.90;19.90
1413;DHT22;701;52.526;13.408;2023-11-22T02:17:16;0.90;20.00
1413;DHT22;701;52.526;13.408;2023-11-22T02:19:45;0.80;19.10
1413;DHT22;701;52.526;13.408;2023-11-22T02:22:12;0.80;19.40
1413;DHT22;701;52.526;13.408;2023-11-22T02:24:38;0.80;19.20
1413;DHT22;701;52.526;13.408;2023-11-22T02:27:04;0.80;19.00
1413;DHT22;701;52.526;13.408;2023-11-22T02:29:29;0.80;19.00
1413;DHT22;701;52.526;13.408;2023-11-22T02:31:55;0.70;19.00
1413;DHT22;701;52.526;13.408;2023-11-22T02:34:21;0.70;18.80
1413;DHT22;701;52.526;13.408;2023-11-22T02:36:47;0.70;18.50
1413;DHT22;701;52.526;13.408;2023-11-22T02:39:13;0.70;18.80
1413;DHT22;701;52.526;13.408;2023-11-22T02:41:39;0.70;18.60
1413;DHT22;701;52.526;13.408;2023-11-22T02:44:05;0.60;18.00
1413;DHT22;701;52.526;13.408;2023-11-22T02:46:34;0.60;18.00
1413;DHT22;701;52.526;13.408;2023-11-22T02:48:59;0.60;17.20
1413;DHT22;701;52.526;13.408;2023-11-22T02:51:26;0.60;16.60
1413;DHT22;701;52.526;13.408;2023-11-22T02:53:53;0.60;16.40
1413;DHT22;701;52.526;13.408;2023-11-22T02:56:19;0.60;16.10
1413;DHT22;701;52.526;13.408;2023-11-22T02:58:45;0.60;16.40
1413;DHT22;701;52.526;13.408;2023-11-22T03:01:11;0.60;16.60
1413;DHT22;701;52.526;13.408;2023-11-22T03:03:37;0.60;16.30
1413;DHT22;701;52.526;13.408;2023-11-22T03:06:03;0.50;16.10
1413;DHT22;701;52.526;13.408;2023-11-22T03:08:30;0.60;16.10
1413;DHT22;701;52.526;13.408;2023-11-22T03:10:56;0.50;16.10
1413;DHT22;701;52.526;13.408;2023-11-22T03:13:21;0.50;16.80
1413;DHT22;701;52.526;13.408;2023-11-22T03:15:48;0.50;16.50
1413;DHT22;701;52.526;13.408;2023-11-22T03:18:14;0.50;16.90
1413;DHT22;701;52.526;13.408;2023-11-22T03:20:41;0.50;17.30
1413;DHT22;701;52.526;13.408;2023-11-22T03:23:08;0.50;17.90
1413;DHT22;701;52.526;13.408;2023-11-22T03:25:36;0.50;18.50
1413;DHT22;701;52.526;13.408;2023-11-22T03:28:02;0.50;18.90
1413;DHT22;701;52.526;13.408;2023-11-22T03:30:28;0.40;19.90
1413;DHT22;701;52.526;13.408;2023-11-22T03:32:53;0.50;20.50
1413;DHT22;701;52.526;13.408;2023-11-22T03:35:21;0.50;21.10
1413;DHT22;701;52.526;13.408;2023-11-22T03:37:47;0.40;21.40
1413;DHT22;701;52.526;13.408;2023-11-22T03:40:13;0.40;21.60
1413;DHT22;701;52.526;13.408;2023-11-22T03:42:40;0.40;21.90
1413;DHT22;701;52.526;13.408;2023-11-22T03:45:07;0.40;22.30
1413;DHT22;701;52.526;13.408;2023-11-22T03:47:32;0.30;22.30
1413;DHT22;701;52.526;13.408;2023-11-22T03:49:59;0.30;22.30
1413;DHT22;701;52.526;13.408;2023-11-22T03:52:25;0.30;22.60
1413;DHT22;701;52.526;13.408;2023-11-22T03:54:52;0.20;22.80
1413;DHT22;701;52.526;13.408;2023-11-22T03:57:18;0.20;23.00
1413;DHT22;701;52.526;13.408;2023-11-22T03:59:43;0.20;23.30
1413;DHT22;701;52.526;13.408;2023-11-22T04:02:09;0.20;23.40
1413;DHT22;701;52.526;13.408;2023-11-22T04:04:36;0.10;23.40
1413;DHT22;701;52.526;13.408;2023-11-22T04:07:03;0.10;23.70
1413;DHT22;701;52.526;13.408;2023-11-22T04:09:29;0.10;23.70
1413;DHT22;701;52.526;13.408;2023-11-22T04:11:55;0.10;23.80
1413;DHT22;701;52.526;13.408;2023-11-22T04:14:21;0.10;23.90
1413;DHT22;701;52.526;13.408;2023-11-22T04:16:47;0.00;23.90
1413;DHT22;701;52.526;13.408;2023-11-22T04:19:13;0.00;24.10
1413;DHT22;701;52.526;13.408;2023-11-22T04:21:38;0.00;24.70
1413;DHT22;701;52.526;13.408;2023-11-22T04:24:05;0.00;24.30
1413;DHT22;701;52.526;13.408;2023-11-22T04:26:31;0.00;24.30
1413;DHT22;701;52.526;13.408;2023-11-22T04:28:57;0.00;24.40
1413;DHT22;701;52.526;13.408;2023-11-22T04:31:24;0.00;24.30
1413;DHT22;701;52.526;13.408;2023-11-22T04:33:50;0.00;24.40
1413;DHT22;701;52.526;13.408;2023-11-22T04:36:16;-0.10;24.30
1413;DHT22;701;52.526;13.408;2023-11-22T04:38:42;-0.10;24.30
1413;DHT22;701;52.526;13.408;2023-11-22T04:41:08;-0.10;24.40
1413;DHT22;701;52.526;13.408;2023-11-22T04:43:34;-0.20;24.30
1413;DHT22;701;52.526;13.408;2023-11-22T04:45:59;-0.20;24.40
1413;DHT22;701;52.526;13.408;2023-11-22T04:48:25;-0.20;24.30
1413;DHT22;701;52.526;13.408;2023-11-22T04:50:51;-0.20;24.90
1413;DHT22;701;52.526;13.408;2023-11-22T04:53:18;-0.20;24.40
1413;DHT22;701;52.526;13.408;2023-11-22T04:55:44;-0.20;24.40
1413;DHT22;701;52.526;13.408;2023-11-22T04:58:10;-0.20;24.40
1413;DHT22;701;52.526;13.408;2023-11-22T05:00:36;-0.20;24.30
1413;DHT22;701;52.526;13.408;2023-11-22T05:03:01;-0.30;24.30
1413;DHT22;701;52.526;13.408;2023-11-22T05:05:27;-0.20;24.20
1413;DHT22;701;52.526;13.408;2023-11-22T05:07:53;-0.30;24.10
1413;DHT22;701;52.526;13.408;2023-11-22T05:10:19;-0.30;24.20
1413;DHT22;701;52.526;13.408;2023-11-22T05:12:44;-0.30;24.10
1413;DHT22;701;52.526;13.408;2023-11-22T05:15:10;-0.30;24.10
1413;DHT22;701;52.526;13.408;2023-11-22T05:17:37;-0.30;24.00
1413;DHT22;701;52.526;13.408;2023-11-22T05:20:03;-0.30;24.00
1413;DHT22;701;52.526;13.408;2023-11-22T05:22:30;-0.30;23.90
1413;DHT22;701;52.526;13.408;2023-11-22T05:24:55;-0.30;23.90
1413;DHT22;701;52.526;13.408;2023-11-22T05:27:21;-0.30;23.80
1413;DHT22;701;52.526;13.408;2023-11-22T05:29:47;-0.30;23.80
1413;DHT22;701;52.526;13.408;2023-11-22T05:32:13;-0.30;23.60
1413;DHT22;701;52.526;13.408;2023-11-22T05:34:39;-0.40;23.50
1413;DHT22;701;52.526;13.408;2023-11-22T05:37:06;-0.30;23.60
1413;DHT22;701;52.526;13.408;2023-11-22T05:39:32;-0.40;23.70
1413;DHT22;701;52.526;13.408;2023-11-22T05:41:58;-0.40;23.70
1413;DHT22;701;52.526;13.408;2023-11-22T05:44:24;-0.40;23.30
1413;DHT22;701;52.526;13.408;2023-11-22T05:46:51;-0.40;23.20
1413;DHT22;701;52.526;13.408;2023-11-22T05:49:17;-0.40;23.10
1413;DHT22;701;52.526;13.408;2023-11-22T05:51:43;-0.40;23.00
1413;DHT22;701;52.526;13.408;2023-11-22T05:54:09;-0.40;23.00
1413;DHT22;701;52.526;13.408;2023-11-22T05:56:37;-0.40;23.00
1413;DHT22;701;52.526;13.408;2023-11-22T05:59:03;-0.40;23.00
1413;DHT22;701;52.526;13.408;2023-11-22T06:01:29;-0.40;23.00
1413;DHT22;701;52.526;13.408;2023-11-22T06:03:55;-0.40;22.70
1413;DHT22;701;52.526;13.408;2023-11-22T06:06:22;-0.40;22.80
1413;DHT22;701;52.526;13.408;2023-11-22T06:08:48;-0.40;22.70
1413;DHT22;701;52.526;13.408;2023-11-22T06:11:14;-0.40;22.50
1413;DHT22;701;52.526;13.408;2023-11-22T06:13:43;-0.40;22.50
1413;DHT22;701;52.526;13.408;2023-11-22T06:16:08;-0.40;22.30
1413;DHT22;701;52.526;13.408;2023-11-22T06:18:35;-0.40;22.40
1413;DHT22;701;52.526;13.408;2023-11-22T06:21:06;-0.40;22.10
1413;DHT22;701;52.526;13.408;2023-11-22T06:23:32;-0.40;22.20
1413;DHT22;701;52.526;13.408;2023-11-22T06:25:58;-0.40;22.20
1413;DHT22;701;52.526;13.408;2023-11-22T06:28:24;-0.40;22.20
1413;DHT22;701;52.526;13.408;2023-11-22T06:30:50;-0.40;22.20
1413;DHT22;701;52.526;13.408;2023-11-22T06:33:16;-0.40;22.10
1413;DHT22;701;52.526;13.408;2023-11-22T06:35:41;-0.40;22.30
1413;DHT22;701;52.526;13.408;2023-11-22T06:38:08;-0.40;22.10
1413;DHT22;701;52.526;13.408;2023-11-22T06:40:34;-0.40;21.90
1413;DHT22;701;52.526;13.408;2023-11-22T06:43:00;-0.40;22.10
1413;DHT22;701;52.526;13.408;2023-11-22T06:45:26;-0.40;22.10
1413;DHT22;701;52.526;13.408;2023-11-22T06:47:52;-0.40;21.90
1413;DHT22;701;52.526;13.408;2023-11-22T06:50:18;-0.30;22.10
1413;DHT22;701;52.526;13.408;2023-11-22T06:52:44;-0.30;22.10
1413;DHT22;701;52.526;13.408;2023-11-22T06:55:11;-0.30;22.20
1413;DHT22;701;52.526;13.408;2023-11-22T06:57:38;-0.30;22.30
1413;DHT22;701;52.526;13.408;2023-11-22T07:00:05;-0.30;22.40
1413;DHT22;701;52.526;13.408;2023-11-22T07:02:34;-0.30;22.20
1413;DHT22;701;52.526;13.408;2023-11-22T07:05:01;-0.30;22.30
1413;DHT22;701;52.526;13.408;2023-11-22T07:07:28;-0.30;22.20
1413;DHT22;701;52.526;13.408;2023-11-22T07:09:55;-0.30;22.10
1413;DHT22;701;52.526;13.408;2023-11-22T07:12:24;-0.30;22.00
1413;DHT22;701;52.526;13.408;2023-11-22T07:14:50;-0.20;22.10
1413;DHT22;701;52.526;13.408;2023-11-22T07:17:16;-0.20;22.00
1413;DHT22;701;52.526;13.408;2023-11-22T07:19:43;-0.20;22.00
1413;DHT22;701;52.526;13.408;2023-11-22T07:22:13;-0.20;22.00
1413;DHT22;701;52.526;13.408;2023-11-22T07:24:45;-0.20;22.00
1413;DHT22;701;52.526;13.408;2023-11-22T07:27:13;-0.20;22.50
1413;DHT22;701;52.526;13.408;2023-11-22T07:29:43;-0.20;22.00
1413;DHT22;701;52.526;13.408;2023-11-22T07:32:10;-0.20;22.10
1413;DHT22;701;52.526;13.408;2023-11-22T07:34:36;-0.20;22.10
1413;DHT22;701;52.526;13.408;2023-11-22T07:37:02;-0.20;22.40
1413;DHT22;701;52.526;13.408;2023-11-22T07:39:28;-0.20;22.50
1413;DHT22;701;52.526;13.408;2023-11-22T07:41:57;-0.10;22.80
1413;DHT22;701;52.526;13.408;2023-11-22T07:44:23;-0.10;22.90
1413;DHT22;701;52.526;13.408;2023-11-22T07:46:52;-0.10;23.00
1413;DHT22;701;52.526;13.408;2023-11-22T07:49:22;0.00;23.30
1413;DHT22;701;52.526;13.408;2023-11-22T07:51:48;0.00;23.40
1413;DHT22;701;52.526;13.408;2023-11-22T07:54:20;0.10;23.70
1413;DHT22;701;52.526;13.408;2023-11-22T07:56:48;0.10;23.80
1413;DHT22;701;52.526;13.408;2023-11-22T07:59:14;0.10;23.90
1413;DHT22;701;52.526;13.408;2023-11-22T08:01:44;0.10;23.90
1413;DHT22;701;52.526;13.408;2023-11-22T08:04:11;0.20;24.00
1413;DHT22;701;52.526;13.408;2023-11-22T08:06:37;0.20;23.80
1413;DHT22;701;52.526;13.408;2023-11-22T08:09:04;0.20;23.70
1413;DHT22;701;52.526;13.408;2023-11-22T08:11:30;0.20;23.50
1413;DHT22;701;52.526;13.408;2023-11-22T08:13:57;0.20;23.50
1413;DHT22;701;52.526;13.408;2023-11-22T08:16:25;0.20;23.50
1413;DHT22;701;52.526;13.408;2023-11-22T08:18:50;0.20;23.30
1413;DHT22;701;52.526;13.408;2023-11-22T08:21:16;0.20;23.40
1413;DHT22;701;52.526;13.408;2023-11-22T08:23:42;0.20;23.40
1413;DHT22;701;52.526;13.408;2023-11-22T08:26:08;0.20;23.40
1413;DHT22;701;52.526;13.408;2023-11-22T08:28:34;0.20;23.20
1413;DHT22;701;52.526;13.408;2023-11-22T08:31:00;0.20;23.10
1413;DHT22;701;52.526;13.408;2023-11-22T08:33:29;0.30;23.10
1413;DHT22;701;52.526;13.408;2023-11-22T08:35:55;0.30;23.00
1413;DHT22;701;52.526;13.408;2023-11-22T08:38:25;0.30;22.80
1413;DHT22;701;52.526;13.408;2023-11-22T11:06:10;5.50;1.00
1413;DHT22;701;52.526;13.408;2023-11-22T11:08:39;5.20;1.10
1413;DHT22;701;52.526;13.408;2023-11-22T11:11:06;4.90;2.00
1413;DHT22;701;52.526;13.408;2023-11-22T11:13:32;4.70;2.60
1413;DHT22;701;52.526;13.408;2023-11-22T11:15:59;4.60;3.00
1413;DHT22;701;52.526;13.408;2023-11-22T11:18:26;4.50;3.00
1413;DHT22;701;52.526;13.408;2023-11-22T11:20:56;4.40;2.60
1413;DHT22;701;52.526;13.408;2023-11-22T11:23:30;4.40;3.10
1413;DHT22;701;52.526;13.408;2023-11-22T11:25:58;4.40;3.40
1413;DHT22;701;52.526;13.408;2023-11-22T11:28:44;4.50;3.20
1413;DHT22;701;52.526;13.408;2023-11-22T11:31:11;4.40;2.90
1413;DHT22;701;52.526;13.408;2023-11-22T11:33:58;4.50;3.30
1413;DHT22;701;52.526;13.408;2023-11-22T11:36:26;4.40;2.90
1413;DHT22;701;52.526;13.408;2023-11-22T11:38:53;4.40;3.00
1413;DHT22;701;52.526;13.408;2023-11-22T11:41:31;4.40;2.90
1413;DHT22;701;52.526;13.408;2023-11-22T11:43:58;4.50;3.00
1413;DHT22;701;52.526;13.408;2023-11-22T11:46:26;4.60;3.30
1413;DHT22;701;52.526;13.408;2023-11-22T11:48:55;4.60;3.00
1413;DHT22;701;52.526;13.408;2023-11-22T11:51:23;4.70;3.20
1413;DHT22;701;52.526;13.408;2023-11-22T11:53:49;4.70;2.40
1413;DHT22;701;52.526;13.408;2023-11-22T11:56:16;4.80;2.50
1413;DHT22;701;52.526;13.408;2023-11-22T11:58:43;4.80;3.20
1413;DHT22;701;52.526;13.408;2023-11-22T12:01:12;4.90;2.30
1413;DHT22;701;52.526;13.408;2023-11-22T12:03:38;4.90;2.30
1413;DHT22;701;52.526;13.408;2023-11-22T12:06:05;4.90;1.50
1413;DHT22;701;52.526;13.408;2023-11-22T12:08:31;4.90;2.10
1413;DHT22;701;52.526;13.408;2023-11-22T12:11:02;4.90;1.10
1413;DHT22;701;52.526;13.408;2023-11-22T12:13:29;4.80;1.50
1413;DHT22;701;52.526;13.408;2023-11-22T12:15:55;4.80;1.10
1413;DHT22;701;52.526;13.408;2023-11-22T12:18:23;4.80;1.00
1413;DHT22;701;52.526;13.408;2023-11-22T12:20:59;4.80;1.50
1413;DHT22;701;52.526;13.408;2023-11-22T12:23:26;4.80;1.20
1413;DHT22;701;52.526;13.408;2023-11-22T12:25:56;4.80;1.30
1413;DHT22;701;52.526;13.408;2023-11-22T12:28:24;4.70;1.00
1413;DHT22;701;52.526;13.408;2023-11-22T12:30:50;4.70;1.70
1413;DHT22;701;52.526;13.408;2023-11-22T12:33:16;4.60;1.80
1413;DHT22;701;52.526;13.408;2023-11-22T12:35:43;4.60;2.10
1413;DHT22;701;52.526;13.408;2023-11-22T12:38:12;4.60;1.80
1413;DHT22;701;52.526;13.408;2023-11-22T12:40:42;4.60;2.10
1413;DHT22;701;52.526;13.408;2023-11-22T12:43:08;4.60;2.20
1413;DHT22;701;52.526;13.408;2023-11-22T12:45:34;4.60;2.10
1413;DHT22;701;52.526;13.408;2023-11-22T12:48:24;4.70;2.40
1413;DHT22;701;52.526;13.408;2023-11-22T12:50:51;4.70;2.20
1413;DHT22;701;52.526;13.408;2023-11-22T12:53:18;4.70;1.90
1413;DHT22;701;52.526;13.408;2023-11-22T12:55:51;4.80;2.50
1413;DHT22;701;52.526;13.408;2023-11-22T12:58:19;4.90;2.60
1413;DHT22;701;52.526;13.408;2023-11-22T13:00:46;4.90;2.50
1413;DHT22;701;52.526;13.408;2023-11-22T13:03:12;5.00;2.30
1413;DHT22;701;52.526;13.408;2023-11-22T13:05:39;5.00;2.30
1413;DHT22;701;52.526;13.408;2023-11-22T13:08:08;5.00;1.90
1413;DHT22;701;52.526;13.408;2023-11-22T13:10:36;5.00;2.30
1413;DHT22;701;52.526;13.408;2023-11-22T13:13:02;5.00;2.20
1413;DHT22;701;52.526;13.408;2023-11-22T13:15:28;5.10;1.40
1413;DHT22;701;52.526;13.408;2023-11-22T13:17:54;5.00;1.00
1413;DHT22;701;52.526;13.408;2023-11-22T13:20:23;5.00;1.10
1413;DHT22;701;52.526;13.408;2023-11-22T13:22:49;5.00;1.30
1413;DHT22;701;52.526;13.408;2023-11-22T13:25:15;5.00;1.40
1413;DHT22;701;52.526;13.408;2023-11-22T13:27:48;4.90;1.60
1413;DHT22;701;52.526;13.408;2023-11-22T13:30:15;4.90;1.50
1413;DHT22;701;52.526;13.408;2023-11-22T13:32:40;4.90;1.90
1413;DHT22;701;52.526;13.408;2023-11-22T13:35:09;4.90;1.70
1413;DHT22;701;52.526;13.408;2023-11-22T13:37:44;4.80;1.60
1413;DHT22;701;52.526;13.408;2023-11-22T13:40:14;4.80;1.00
1413;DHT22;701;52.526;13.408;2023-11-22T13:42:44;4.80;1.00
1413;DHT22;701;52.526;13.408;2023-11-22T13:45:15;4.80;1.00
1413;DHT22;701;52.526;13.408;2023-11-22T13:47:47;4.80;1.00
1413;DHT22;701;52.526;13.408;2023-11-22T13:50:14;4.80;1.00
1413;DHT22;701;52.526;13.408;2023-11-22T13:52:48;4.70;1.00
1413;DHT22;701;52.526;13.408;2023-11-22T13:55:14;4.70;1.00
1413;DHT22;701;52.526;13.408;2023-11-22T13:57:42;4.70;1.00
1413;DHT22;701;52.526;13.408;2023-11-22T14:00:08;4.60;1.00
1413;DHT22;701;52.526;13.408;2023-11-22T14:02:52;4.60;1.00
1413;DHT22;701;52.526;13.408;2023-11-22T14:05:18;4.60;1.00
1413;DHT22;701;52.526;13.408;2023-11-22T14:07:44;4.50;1.00
1413;DHT22;701;52.526;13.408;2023-11-22T14:10:11;4.50;1.00
1413;DHT22;701;52.526;13.408;2023-11-22T14:12:37;4.40;1.00
1413;DHT22;701;52.526;13.408;2023-11-22T14:15:04;4.40;1.00
1413;DHT22;701;52.526;13.408;2023-11-22T14:17:30;4.30;1.10
1413;DHT22;701;52.526;13.408;2023-11-22T14:19:56;4.30;1.50
1413;DHT22;701;52.526;13.408;2023-11-22T14:22:23;4.20;1.60
1413;DHT22;701;52.526;13.408;2023-11-22T14:24:52;4.20;2.00
1413;DHT22;701;52.526;13.408;2023-11-22T14:27:18;4.20;2.40
1413;DHT22;701;52.526;13.408;2023-11-22T14:29:45;4.20;2.80
1413;DHT22;701;52.526;13.408;2023-11-22T14:32:14;4.10;2.70
1413;DHT22;701;52.526;13.408;2023-11-22T14:34:40;4.10;2.70
1413;DHT22;701;52.526;13.408;2023-11-22T14:37:09;4.00;2.80
1413;DHT22;701;52.526;13.408;2023-11-22T14:39:35;4.00;3.20
1413;DHT22;701;52.526;13.408;2023-11-22T14:42:01;3.90;3.40
1413;DHT22;701;52.526;13.408;2023-11-22T14:44:27;3.90;3.60
1413;DHT22;701;52.526;13.408;2023-11-22T14:46:53;3.90;4.40
1413;DHT22;701;52.526;13.408;2023-11-22T14:49:19;3.90;4.00
1413;DHT22;701;52.526;13.408;2023-11-22T14:51:46;3.80;3.50
1413;DHT22;701;52.526;13.408;2023-11-22T14:54:12;3.70;3.20
1413;DHT22;701;52.526;13.408;2023-11-22T14:56:38;3.60;3.00
1413;DHT22;701;52.526;13.408;2023-11-22T14:59:05;3.60;3.00
1413;DHT22;701;52.526;13.408;2023-11-22T15:01:31;3.50;3.20
1413;DHT22;701;52.526;13.408;2023-11-22T15:03:57;3.50;3.20
1413;DHT22;701;52.526;13.408;2023-11-22T15:06:23;3.40;3.30
1413;DHT22;701;52.526;13.408;2023-11-22T15:08:49;3.40;3.40
1413;DHT22;701;52.526;13.408;2023-11-22T15:11:16;3.40;3.50
1413;DHT22;701;52.526;13.408;2023-11-22T15:13:44;3.30;3.80
1413;DHT22;701;52.526;13.408;2023-11-22T15:16:10;3.40;4.10
1413;DHT22;701;52.526;13.408;2023-11-22T15:18:38;3.30;4.30
1413;DHT22;701;52.526;13.408;2023-11-22T15:21:05;3.30;4.10
1413;DHT22;701;52.526;13.408;2023-11-22T15:23:31;3.30;4.20
1413;DHT22;701;52.526;13.408;2023-11-22T15:25:57;3.30;4.30
1413;DHT22;701;52.526;13.408;2023-11-22T15:28:24;3.30;4.60
1413;DHT22;701;52.526;13.408;2023-11-22T15:30:50;3.30;4.70
1413;DHT22;701;52.526;13.408;2023-11-22T15:33:25;3.30;4.80
1413;DHT22;701;52.526;13.408;2023-11-22T15:35:51;3.30;4.70
1413;DHT22;701;52.526;13.408;2023-11-22T15:38:17;3.30;4.90
1413;DHT22;701;52.526;13.408;2023-11-22T15:40:43;3.30;5.20
1413;DHT22;701;52.526;13.408;2023-11-22T15:43:09;3.30;5.30
1413;DHT22;701;52.526;13.408;2023-11-22T15:45:35;3.40;5.30
1413;DHT22;701;52.526;13.408;2023-11-22T15:48:05;3.40;5.20
1413;DHT22;701;52.526;13.408;2023-11-22T15:50:31;3.40;5.30
1413;DHT22;701;52.526;13.408;2023-11-22T15:52:58;3.40;5.50
1413;DHT22;701;52.526;13.408;2023-11-22T15:55:24;3.50;6.20
1413;DHT22;701;52.526;13.408;2023-11-22T15:57:50;3.50;5.50
1413;DHT22;701;52.526;13.408;2023-11-22T16:00:16;3.50;5.40
1413;DHT22;701;52.526;13.408;2023-11-22T16:02:42;3.50;5.60
1413;DHT22;701;52.526;13.408;2023-11-22T16:05:08;3.50;5.60
1413;DHT22;701;52.526;13.408;2023-11-22T16:07:34;3.50;6.00
1413;DHT22;701;52.526;13.408;2023-11-22T16:10:00;3.50;6.10
1413;DHT22;701;52.526;13.408;2023-11-22T16:12:26;3.50;6.20
1413;DHT22;701;52.526;13.408;2023-11-22T16:14:52;3.50;6.20
1413;DHT22;701;52.526;13.408;2023-11-22T16:17:19;3.50;6.20
1413;DHT22;701;52.526;13.408;2023-11-22T16:19:47;3.50;6.20
1413;DHT22;701;52.526;13.408;2023-11-22T16:22:14;3.50;6.20
1413;DHT22;701;52.526;13.408;2023-11-22T16:24:39;3.50;6.20
1413;DHT22;701;52.526;13.408;2023-11-22T16:27:06;3.50;6.20
1413;DHT22;701;52.526;13.408;2023-11-22T16:29:32;3.50;6.20
1413;DHT22;701;52.526;13.408;2023-11-22T16:31:58;3.50;6.20
1413;DHT22;701;52.526;13.408;2023-11-22T16:34:26;3.50;6.20
1413;DHT22;701;52.526;13.408;2023-11-22T16:36:53;3.50;6.20
1413;DHT22;701;52.526;13.408;2023-11-22T16:39:19;3.50;6.20
1413;DHT22;701;52.526;13.408;2023-11-22T16:41:51;3.50;6.20
1413;DHT22;701;52.526;13.408;2023-11-22T16:44:17;3.50;6.20
1413;DHT22;701;52.526;13.408;2023-11-22T16:46:45;3.50;6.20
1413;DHT22;701;52.526;13.408;2023-11-22T16:49:14;3.50;6.20
1413;DHT22;701;52.526;13.408;2023-11-22T16:51:40;3.50;6.20
1413;DHT22;701;52.526;13.408;2023-11-22T16:54:10;3.50;6.20
1413;DHT22;701;52.526;13.408;2023-11-22T16:56:35;3.50;6.20
1413;DHT22;701;52.526;13.408;2023-11-22T16:59:01;3.50;6.20
1413;DHT22;701;52.526;13.408;2023-11-22T17:01:27;3.50;6.20
1413;DHT22;701;52.526;13.408;2023-11-22T17:03:53;3.50;6.40
1413;DHT22;701;52.526;13.408;2023-11-22T17:06:19;3.50;6.30
1413;DHT22;701;52.526;13.408;2023-11-22T17:08:45;3.50;6.50
1413;DHT22;701;52.526;13.408;2023-11-22T17:11:10;3.50;6.80
1413;DHT22;701;52.526;13.408;2023-11-22T17:13:37;3.50;6.90
1413;DHT22;701;52.526;13.408;2023-11-22T17:16:02;3.50;6.90
1413;DHT22;701;52.526;13.408;2023-11-22T17:18:28;3.50;7.00
1413;DHT22;701;52.526;13.408;2023-11-22T17:20:54;3.50;7.10
1413;DHT22;701;52.526;13.408;2023-11-22T17:23:21;3.50;7.10
1413;DHT22;701;52.526;13.408;2023-11-22T17:25:47;3.50;7.40
1413;DHT22;701;52.526;13.408;2023-11-22T17:28:13;3.50;7.30
1413;DHT22;701;52.526;13.408;2023-11-22T17:30:39;3.50;7.50
1413;DHT22;701;52.526;13.408;2023-11-22T17:33:05;3.50;7.50
1413;DHT22;701;52.526;13.408;2023-11-22T17:35:32;3.50;7.50
1413;DHT22;701;52.526;13.408;2023-11-22T17:37:58;3.50;7.60
1413;DHT22;701;52.526;13.408;2023-11-22T17:40:26;3.50;7.60
1413;DHT22;701;52.526;13.408;2023-11-22T17:42:52;3.50;7.60
1413;DHT22;701;52.526;13.408;2023-11-22T17:45:18;3.50;7.60
1413;DHT22;701;52.526;13.408;2023-11-22T17:47:44;3.40;7.50
1413;DHT22;701;52.526;13.408;2023-11-22T17:50:09;3.30;7.50
1413;DHT22;701;52.526;13.408;2023-11-22T17:52:36;3.30;7.70
1413;DHT22;701;52.526;13.408;2023-11-22T17:55:02;3.30;7.80
1413;DHT22;701;52.526;13.408;2023-11-22T17:57:29;3.30;7.90
1413;DHT22;701;52.526;13.408;2023-11-22T17:59:55;3.30;8.00
1413;DHT22;701;52.526;13.408;2023-11-22T18:02:21;3.30;8.40
1413;DHT22;701;52.526;13.408;2023-11-22T18:04:47;3.30;8.50
1413;DHT22;701;52.526;13.408;2023-11-22T18:07:12;3.30;8.50
1413;DHT22;701;52.526;13.408;2023-11-22T18:09:38;3.30;8.60
1413;DHT22;701;52.526;13.408;2023-11-22T18:12:04;3.20;8.90
1413;DHT22;701;52.526;13.408;2023-11-22T18:14:36;3.20;9.00
1413;DHT22;701;52.526;13.408;2023-11-22T18:17:03;3.10;9.20
1413;DHT22;701;52.526;13.408;2023-11-22T18:19:29;3.00;9.20
1413;DHT22;701;52.526;13.408;2023-11-22T18:21:54;3.00;10.10
1413;DHT22;701;52.526;13.408;2023-11-22T18:24:20;2.90;9.50
1413;DHT22;701;52.526;13.408;2023-11-22T18:26:48;2.80;9.40
1413;DHT22;701;52.526;13.408;2023-11-22T18:29:14;2.80;9.80
1413;DHT22;701;52.526;13.408;2023-11-22T18:31:44;2.70;10.10
1413;DHT22;701;52.526;13.408;2023-11-22T18:34:10;2.60;10.20
1413;DHT22;701;52.526;13.408;2023-11-22T18:36:36;2.60;10.70
1413;DHT22;701;52.526;13.408;2023-11-22T18:39:02;2.50;11.00
1413;DHT22;701;52.526;13.408;2023-11-22T18:41:30;2.50;11.10
1413;DHT22;701;52.526;13.408;2023-11-22T18:43:55;2.40;11.40